createdAt,value
2017-11-21T00:00:59.315Z,1.83
2017-11-21T00:03:28.528Z,2.15
2017-11-21T00:05:57.816Z,2.28
2017-11-21T00:08:27.058Z,2.20
2017-11-21T00:10:56.303Z,2.83
2017-11-21T00:13:26.300Z,2.70
2017-11-21T00:15:55.572Z,3.65
2017-11-21T00:18:24.801Z,2.75
2017-11-21T00:20:54.020Z,2.60
2017-11-21T00:23:24.040Z,1.70
2017-11-21T00:25:54.032Z,2.53
2017-11-21T00:28:23.281Z,2.20
2017-11-21T00:30:52.509Z,1.70
2017-11-21T00:33:21.744Z,1.60
2017-11-21T00:35:51.749Z,1.87
2017-11-21T00:38:20.993Z,1.62
2017-11-21T00:40:50.231Z,1.25
2017-11-21T00:43:19.477Z,1.37
2017-11-21T00:45:48.744Z,1.50
2017-11-21T00:48:17.995Z,1.30
2017-11-21T00:50:47.232Z,1.17
2017-11-21T00:53:16.492Z,1.20
2017-11-21T00:55:45.733Z,1.50
2017-11-21T00:58:14.981Z,1.80
2017-11-21T01:00:44.336Z,1.70
2017-11-21T01:03:13.576Z,1.23
2017-11-21T01:05:42.840Z,1.10
2017-11-21T01:08:12.093Z,1.20
2017-11-21T01:10:41.331Z,1.33
2017-11-21T01:13:10.560Z,1.73
2017-11-21T01:15:39.813Z,1.20
2017-11-21T01:18:09.057Z,1.40
2017-11-21T01:20:39.095Z,1.30
2017-11-21T01:23:09.099Z,1.20
2017-11-21T01:25:38.356Z,1.05
2017-11-21T01:28:07.596Z,1.45
2017-11-21T01:30:37.639Z,1.40
2017-11-21T01:33:07.634Z,1.17
2017-11-21T01:35:37.642Z,1.25
2017-11-21T01:38:06.872Z,1.45
2017-11-21T01:40:36.104Z,1.37
2017-11-21T01:43:05.358Z,1.35
2017-11-21T01:45:35.359Z,1.25
2017-11-21T01:48:05.380Z,1.25
2017-11-21T01:50:35.404Z,1.30
2017-11-21T01:53:05.405Z,1.10
2017-11-21T01:55:34.660Z,1.25
2017-11-21T01:58:03.923Z,1.27
2017-11-21T02:03:50.879Z,1.10
2017-11-21T02:06:20.170Z,0.90
2017-11-21T02:08:49.415Z,1.00
2017-11-21T02:11:18.685Z,1.10
2017-11-21T02:13:47.997Z,1.00
2017-11-21T02:16:17.271Z,1.02
2017-11-21T02:18:46.548Z,1.30
2017-11-21T02:21:15.845Z,1.10
2017-11-21T02:23:45.112Z,1.10
2017-11-21T02:26:14.395Z,1.20
2017-11-21T02:28:43.671Z,1.20
2017-11-21T02:31:16.897Z,1.00
2017-11-21T02:33:46.672Z,1.00
2017-11-21T02:36:16.670Z,1.17
2017-11-21T02:38:46.977Z,1.00
2017-11-21T02:41:18.187Z,1.10
2017-11-21T02:43:47.932Z,1.20
2017-11-21T02:46:18.443Z,0.90
2017-11-21T02:48:48.350Z,1.62
2017-11-21T02:51:18.159Z,0.95
2017-11-21T02:53:48.087Z,1.10
2017-11-21T02:56:19.036Z,1.00
2017-11-21T02:58:48.794Z,0.95
2017-11-21T03:01:18.572Z,1.30
2017-11-21T03:03:49.067Z,1.00
2017-11-21T03:06:19.389Z,1.20
2017-11-21T03:08:50.567Z,1.30
2017-11-21T03:11:22.599Z,1.15
2017-11-21T03:13:52.293Z,1.15
2017-11-21T03:16:22.038Z,1.00
2017-11-21T03:18:55.123Z,1.10
2017-11-21T03:21:42.659Z,1.17
2017-11-21T03:27:32.859Z,1.20
2017-11-21T03:30:02.101Z,1.00
2017-11-21T03:32:31.324Z,1.00
2017-11-21T03:35:01.348Z,1.00
2017-11-21T03:37:31.341Z,1.00
2017-11-21T03:40:00.582Z,1.02
2017-11-21T03:42:29.839Z,1.08
2017-11-21T03:44:59.067Z,1.10
2017-11-21T03:47:28.318Z,1.10
2017-11-21T03:49:57.568Z,0.98
2017-11-21T03:52:26.816Z,1.23
2017-11-21T03:54:56.065Z,1.20
2017-11-21T03:57:25.316Z,1.00
2017-11-21T03:59:54.552Z,1.05
2017-11-21T04:02:23.932Z,1.00
2017-11-21T04:04:53.169Z,1.25
2017-11-21T04:07:22.431Z,1.00
2017-11-21T04:09:51.680Z,0.90
2017-11-21T04:12:20.929Z,1.10
2017-11-21T04:14:50.149Z,1.15
2017-11-21T04:17:20.177Z,1.10
2017-11-21T04:19:49.404Z,1.00
2017-11-21T04:22:18.645Z,0.90
2017-11-21T04:24:47.903Z,1.20
2017-11-21T04:27:17.144Z,1.12
2017-11-21T04:29:46.415Z,1.00
2017-11-21T04:32:15.643Z,1.17
2017-11-21T04:34:44.946Z,1.00
2017-11-21T04:37:14.178Z,1.00
2017-11-21T04:39:43.389Z,0.98
2017-11-21T04:42:12.653Z,1.10
2017-11-21T04:44:42.653Z,1.10
2017-11-21T04:47:11.904Z,1.12
2017-11-21T04:49:41.138Z,1.10
2017-11-21T04:52:10.424Z,1.10
2017-11-21T04:54:40.432Z,1.10
2017-11-21T04:57:09.651Z,1.00
2017-11-21T04:59:38.878Z,1.00
2017-11-21T05:02:08.156Z,1.35
2017-11-21T05:04:37.390Z,1.12
2017-11-21T05:07:07.430Z,0.93
2017-11-21T05:09:36.657Z,1.10
2017-11-21T05:12:05.880Z,1.12
2017-11-21T05:14:35.138Z,1.00
2017-11-21T05:17:04.375Z,1.10
2017-11-21T05:19:33.628Z,1.33
2017-11-21T05:22:02.866Z,1.25
2017-11-21T05:24:32.099Z,0.90
2017-11-21T05:27:01.345Z,1.10
2017-11-21T05:29:30.579Z,1.00
2017-11-21T05:31:59.844Z,1.27
2017-11-21T05:34:29.081Z,1.05
2017-11-21T05:36:58.309Z,1.30
2017-11-21T05:39:27.574Z,1.30
2017-11-21T05:41:56.798Z,1.17
2017-11-21T05:44:27.843Z,1.30
2017-11-21T05:46:57.065Z,1.20
2017-11-21T05:49:26.333Z,1.58
2017-11-21T05:51:55.726Z,1.20
2017-11-21T05:54:25.077Z,1.17
2017-11-21T05:56:54.314Z,1.50
2017-11-21T05:59:23.562Z,1.17
2017-11-21T06:01:52.824Z,1.10
2017-11-21T06:04:22.087Z,1.10
2017-11-21T06:06:51.359Z,1.23
2017-11-21T06:09:20.581Z,1.40
2017-11-21T06:11:49.809Z,1.23
2017-11-21T06:14:19.060Z,1.23
2017-11-21T06:16:49.089Z,1.33
2017-11-21T06:19:18.344Z,1.20
2017-11-21T06:21:47.587Z,1.98
2017-11-21T06:24:16.821Z,1.30
2017-11-21T06:26:46.073Z,1.12
2017-11-21T06:29:16.084Z,1.20
2017-11-21T06:31:46.092Z,1.30
2017-11-21T06:34:16.130Z,1.30
2017-11-21T06:36:46.135Z,1.30
2017-11-21T06:39:15.389Z,1.10
2017-11-21T06:41:44.639Z,1.35
2017-11-21T06:44:14.654Z,1.23
2017-11-21T06:46:43.932Z,1.50
2017-11-21T06:49:13.264Z,1.48
2017-11-21T06:51:42.536Z,1.17
2017-11-21T06:54:11.756Z,1.30
2017-11-21T06:56:41.768Z,1.10
2017-11-21T06:59:11.779Z,1.05
2017-11-21T07:01:41.048Z,1.25
2017-11-21T07:04:10.291Z,1.10
2017-11-21T07:06:40.327Z,1.40
2017-11-21T07:09:09.592Z,1.30
2017-11-21T07:11:38.853Z,1.17
2017-11-21T07:14:08.104Z,1.17
2017-11-21T07:16:38.100Z,1.20
2017-11-21T07:19:07.374Z,1.10
2017-11-21T07:21:36.592Z,1.17
2017-11-21T07:24:05.833Z,1.10
2017-11-21T07:26:35.092Z,1.40
2017-11-21T07:29:04.328Z,1.33
2017-11-21T07:31:34.448Z,1.25
2017-11-21T07:34:04.482Z,1.20
2017-11-21T07:36:33.717Z,1.17
2017-11-21T07:39:02.950Z,1.20
2017-11-21T07:41:32.244Z,1.10
2017-11-21T07:44:01.483Z,1.30
2017-11-21T07:46:30.709Z,1.12
2017-11-21T07:48:59.971Z,1.20
2017-11-21T07:51:29.964Z,1.10
2017-11-21T07:53:59.217Z,1.50
2017-11-21T07:56:28.489Z,1.05
2017-11-21T07:58:57.725Z,1.23
2017-11-21T08:01:26.959Z,1.17
2017-11-21T08:03:56.204Z,1.20
2017-11-21T08:06:25.432Z,1.40
2017-11-21T08:08:54.664Z,1.48
2017-11-21T08:11:23.915Z,1.35
2017-11-21T08:13:53.132Z,1.12
2017-11-21T08:16:22.390Z,1.58
2017-11-21T08:18:51.618Z,1.10
2017-11-21T08:21:21.085Z,1.10
2017-11-21T08:23:51.116Z,1.52
2017-11-21T08:26:20.349Z,1.25
2017-11-21T08:28:49.583Z,1.48
2017-11-21T08:31:18.884Z,1.20
2017-11-21T08:33:48.877Z,1.20
2017-11-21T08:36:18.128Z,1.25
2017-11-21T08:38:47.355Z,1.30
2017-11-21T08:41:16.585Z,1.35
2017-11-21T08:43:45.850Z,1.40
2017-11-21T08:46:15.066Z,1.30
2017-11-21T08:48:44.357Z,1.33
2017-11-21T08:51:13.588Z,1.33
2017-11-21T08:53:42.837Z,1.20
2017-11-21T08:56:12.113Z,1.50
2017-11-21T08:58:42.115Z,1.33
2017-11-21T09:01:11.368Z,1.17
2017-11-21T09:03:40.612Z,1.30
2017-11-21T09:06:10.664Z,1.55
2017-11-21T09:08:40.651Z,1.70
2017-11-21T09:11:09.911Z,1.67
2017-11-21T09:13:39.157Z,1.62
2017-11-21T09:16:08.385Z,1.92
2017-11-21T09:18:37.640Z,2.05
2017-11-21T09:21:06.870Z,1.80
2017-11-21T09:23:36.883Z,1.58
2017-11-21T09:26:06.867Z,1.62
2017-11-21T09:28:36.113Z,2.33
2017-11-21T09:31:05.382Z,2.05
2017-11-21T09:33:34.618Z,2.55
2017-11-21T09:36:03.846Z,1.80
2017-11-21T09:38:33.101Z,1.60
2017-11-21T09:41:03.092Z,1.85
2017-11-21T09:43:32.357Z,2.00
2017-11-21T09:46:01.583Z,1.65
2017-11-21T09:48:30.830Z,2.05
2017-11-21T09:51:00.078Z,1.83
2017-11-21T09:53:29.305Z,1.65
2017-11-21T09:55:59.328Z,1.73
2017-11-21T09:58:29.328Z,2.20
2017-11-21T10:00:58.676Z,1.62
2017-11-21T10:03:27.904Z,1.70
2017-11-21T10:05:57.136Z,2.00
2017-11-21T10:08:27.169Z,1.50
2017-11-21T10:10:57.161Z,1.50
2017-11-21T10:13:26.421Z,1.60
2017-11-21T10:15:55.720Z,1.40
2017-11-21T10:18:24.982Z,1.87
2017-11-21T10:20:54.988Z,2.05
2017-11-21T10:23:25.016Z,1.60
2017-11-21T10:25:54.247Z,2.30
2017-11-21T10:28:23.507Z,1.58
2017-11-21T10:30:53.508Z,1.83
2017-11-21T10:33:22.897Z,1.80
2017-11-21T10:35:52.138Z,2.42
2017-11-21T10:38:22.182Z,1.55
2017-11-21T10:40:51.421Z,1.80
2017-11-21T10:43:20.666Z,1.92
2017-11-21T10:45:49.917Z,1.85
2017-11-21T10:48:19.156Z,1.85
2017-11-21T10:50:49.193Z,2.10
2017-11-21T10:53:18.429Z,1.67
2017-11-21T10:55:47.678Z,1.95
2017-11-21T10:58:17.693Z,1.65
2017-11-21T11:00:46.957Z,2.00
2017-11-21T11:03:16.234Z,2.00
2017-11-21T11:05:45.467Z,2.00
2017-11-21T11:08:14.717Z,2.35
2017-11-21T11:10:43.995Z,2.70
2017-11-21T11:13:13.236Z,3.30
2017-11-21T11:15:42.480Z,3.00
2017-11-21T11:18:12.508Z,3.25
2017-11-21T11:20:41.765Z,8.43
2017-11-21T11:23:11.047Z,3.97
2017-11-21T11:25:40.299Z,3.50
2017-11-21T11:28:09.545Z,4.28
2017-11-21T11:30:38.810Z,2.92
2017-11-21T11:33:08.067Z,2.53
2017-11-21T11:35:37.329Z,2.47
2017-11-21T11:38:06.560Z,3.10
2017-11-21T11:40:35.830Z,2.53
2017-11-21T11:43:05.070Z,3.53
2017-11-21T11:45:34.324Z,3.00
2017-11-21T11:48:03.569Z,2.78
2017-11-21T11:50:32.830Z,2.42
2017-11-21T11:53:02.105Z,2.22
2017-11-21T11:55:32.133Z,3.10
2017-11-21T11:58:01.389Z,3.08
2017-11-21T12:00:30.661Z,3.20
2017-11-21T12:02:59.902Z,3.30
2017-11-21T12:05:29.137Z,3.37
2017-11-21T12:07:58.400Z,4.10
2017-11-21T12:10:27.661Z,4.05
2017-11-21T12:12:56.927Z,3.80
2017-11-21T12:15:26.205Z,4.15
2017-11-21T12:17:55.633Z,3.85
2017-11-21T12:20:24.943Z,4.07
2017-11-21T12:22:54.173Z,3.40
2017-11-21T12:25:23.428Z,3.90
2017-11-21T12:27:52.680Z,6.35
2017-11-21T12:30:21.941Z,5.15
2017-11-21T12:32:51.213Z,5.28
2017-11-21T12:35:20.472Z,6.20
2017-11-21T12:37:49.855Z,4.53
2017-11-21T12:40:19.149Z,3.95
2017-11-21T12:42:48.389Z,4.90
2017-11-21T12:45:18.484Z,4.25
2017-11-21T12:47:47.708Z,4.70
2017-11-21T12:50:18.945Z,4.70
2017-11-21T12:52:48.416Z,4.80
2017-11-21T12:55:17.713Z,5.28
2017-11-21T12:57:46.953Z,4.82
2017-11-21T13:00:16.225Z,4.78
2017-11-21T13:02:45.486Z,4.80
2017-11-21T13:05:14.736Z,4.47
2017-11-21T13:07:43.992Z,4.75
2017-11-21T13:10:14.020Z,4.07
2017-11-21T13:12:43.330Z,4.32
2017-11-21T13:15:12.606Z,4.65
2017-11-21T13:17:41.857Z,4.80
2017-11-21T13:20:11.099Z,4.85
2017-11-21T13:22:40.362Z,7.45
2017-11-21T13:25:09.674Z,10.20
2017-11-21T13:27:39.040Z,5.22
2017-11-21T13:30:09.037Z,5.75
2017-11-21T13:32:39.069Z,6.68
2017-11-21T13:35:08.309Z,5.72
2017-11-21T13:37:37.539Z,5.65
2017-11-21T13:40:07.592Z,5.87
2017-11-21T13:42:36.826Z,6.07
2017-11-21T13:45:06.081Z,4.82
2017-11-21T13:47:35.336Z,5.00
2017-11-21T13:50:04.708Z,5.28
2017-11-21T13:52:33.980Z,5.75
2017-11-21T13:55:03.244Z,5.50
2017-11-21T13:57:32.475Z,4.82
2017-11-21T14:00:01.772Z,5.87
2017-11-21T14:02:49.280Z,5.22
2017-11-21T14:05:25.495Z,5.10
2017-11-21T14:07:54.744Z,5.00
2017-11-21T14:10:24.020Z,4.70
2017-11-21T14:12:53.311Z,5.68
2017-11-21T14:15:22.553Z,5.32
2017-11-21T14:17:52.593Z,4.60
2017-11-21T14:20:21.841Z,4.60
2017-11-21T14:22:51.083Z,4.87
2017-11-21T14:25:21.116Z,5.25
2017-11-21T14:27:50.739Z,6.25
2017-11-21T14:30:20.021Z,5.93
2017-11-21T14:32:49.263Z,5.50
2017-11-21T14:35:18.539Z,5.43
2017-11-21T14:37:47.804Z,6.15
2017-11-21T14:40:17.820Z,6.57
2017-11-21T14:42:47.073Z,6.40
2017-11-21T14:45:16.343Z,6.20
2017-11-21T14:47:45.586Z,6.00
2017-11-21T14:50:14.835Z,6.57
2017-11-21T14:52:44.092Z,6.87
2017-11-21T14:55:13.368Z,6.20
2017-11-21T14:57:43.440Z,5.93
2017-11-21T15:00:13.475Z,6.47
2017-11-21T15:02:42.852Z,5.68
2017-11-21T15:05:12.925Z,5.65
2017-11-21T15:07:42.913Z,7.15
2017-11-21T15:10:12.156Z,6.85
2017-11-21T15:12:41.440Z,6.00
2017-11-21T15:15:10.683Z,6.10
2017-11-21T15:17:39.929Z,6.50
2017-11-21T15:20:09.196Z,6.00
2017-11-21T15:22:39.233Z,6.03
2017-11-21T15:25:08.488Z,6.50
2017-11-21T15:27:37.754Z,7.70
2017-11-21T15:30:07.018Z,5.97
2017-11-21T15:32:37.053Z,7.00
2017-11-21T15:35:06.341Z,7.75
2017-11-21T15:37:36.499Z,7.87
2017-11-21T15:40:05.757Z,7.03
2017-11-21T15:42:35.793Z,7.50
2017-11-21T15:45:05.047Z,7.03
2017-11-21T15:47:34.319Z,7.93
2017-11-21T15:50:03.568Z,7.60
2017-11-21T15:52:33.608Z,6.62
2017-11-21T15:55:02.866Z,7.50
2017-11-21T15:57:32.135Z,6.07
2017-11-21T16:00:01.399Z,7.55
2017-11-21T16:02:31.456Z,25.85
2017-11-21T16:05:00.721Z,22.85
2017-11-21T16:07:30.765Z,18.70
2017-11-21T16:10:00.054Z,15.75
2017-11-21T16:12:29.352Z,16.40
2017-11-21T16:14:58.609Z,11.75
2017-11-21T16:17:27.864Z,11.80
2017-11-21T16:19:57.203Z,12.50
2017-11-21T16:22:26.441Z,11.90
2017-11-21T16:24:55.699Z,15.02
2017-11-21T16:27:24.974Z,13.20
2017-11-21T16:29:54.240Z,17.30
2017-11-21T16:32:24.268Z,14.65
2017-11-21T16:34:53.552Z,12.40
2017-11-21T16:37:23.573Z,14.60
2017-11-21T16:39:53.625Z,14.48
2017-11-21T16:42:22.872Z,15.05
2017-11-21T16:44:52.907Z,12.80
2017-11-21T16:47:22.934Z,12.50
2017-11-21T16:49:52.229Z,13.60
2017-11-21T16:52:21.474Z,10.68
2017-11-21T16:54:50.725Z,10.50
2017-11-21T16:57:19.996Z,10.52
2017-11-21T16:59:49.240Z,10.30
2017-11-21T17:02:18.502Z,10.00
2017-11-21T17:04:47.772Z,11.00
2017-11-21T17:07:17.023Z,10.75
2017-11-21T17:09:47.065Z,10.15
2017-11-21T17:12:16.319Z,10.05
2017-11-21T17:14:45.572Z,9.13
2017-11-21T17:17:14.824Z,9.93
2017-11-21T17:19:44.089Z,10.93
2017-11-21T17:22:13.432Z,10.48
2017-11-21T17:24:42.715Z,10.40
2017-11-21T17:27:11.960Z,9.77
2017-11-21T17:29:42.108Z,11.25
2017-11-21T17:32:11.517Z,11.50
2017-11-21T17:34:42.726Z,12.15
2017-11-21T17:37:12.773Z,13.20
2017-11-21T17:39:42.014Z,11.80
2017-11-21T17:42:11.256Z,12.82
2017-11-21T17:44:40.517Z,12.05
2017-11-21T17:47:09.793Z,13.43
2017-11-21T17:49:39.300Z,10.85
2017-11-21T17:52:08.601Z,11.02
2017-11-21T17:54:37.849Z,10.45
2017-11-21T17:57:07.165Z,10.30
2017-11-21T17:59:36.417Z,10.32
2017-11-21T18:02:05.670Z,10.20
2017-11-21T18:04:34.944Z,11.20
2017-11-21T18:07:04.970Z,11.00
2017-11-21T18:09:34.280Z,11.15
2017-11-21T18:12:04.292Z,11.57
2017-11-21T18:14:34.321Z,10.32
2017-11-21T18:17:03.642Z,9.68
2017-11-21T18:19:32.900Z,9.55
2017-11-21T18:22:02.132Z,11.50
2017-11-21T18:24:31.366Z,9.95
2017-11-21T18:27:00.627Z,10.75
2017-11-21T18:29:30.633Z,11.00
2017-11-21T18:32:00.685Z,11.12
2017-11-21T18:34:29.923Z,10.27
2017-11-21T18:36:59.173Z,12.45
2017-11-21T18:39:28.428Z,11.70
2017-11-21T18:41:57.696Z,10.80
2017-11-21T18:44:26.927Z,12.10
2017-11-21T18:46:56.332Z,11.23
2017-11-21T18:49:25.623Z,10.82
2017-11-21T18:51:54.859Z,12.02
2017-11-21T18:54:24.092Z,12.40
2017-11-21T18:56:53.368Z,11.63
2017-11-21T18:59:23.400Z,12.13
2017-11-21T19:01:52.708Z,12.75
2017-11-21T19:04:21.950Z,10.82
2017-11-21T19:06:51.212Z,13.20
2017-11-21T19:09:20.445Z,12.73
2017-11-21T19:11:49.707Z,11.52
2017-11-21T19:14:19.105Z,12.32
2017-11-21T19:16:48.322Z,11.90
2017-11-21T19:19:17.567Z,11.88
2017-11-21T19:21:46.832Z,12.70
2017-11-21T19:24:16.072Z,14.30
2017-11-21T19:26:45.331Z,15.45
2017-11-21T19:29:14.586Z,15.68
2017-11-21T19:31:44.626Z,18.23
2017-11-21T19:34:13.861Z,15.85
2017-11-21T19:36:43.101Z,16.92
2017-11-21T19:39:13.123Z,18.08
2017-11-21T19:41:42.415Z,19.45
2017-11-21T19:44:11.673Z,22.10
2017-11-21T19:46:40.921Z,20.40
2017-11-21T19:49:10.947Z,22.98
2017-11-21T19:51:40.991Z,20.83
2017-11-21T19:54:10.228Z,20.12
2017-11-21T19:56:39.483Z,21.55
2017-11-21T19:59:08.756Z,22.95
2017-11-21T20:01:38.768Z,22.52
2017-11-21T20:04:08.236Z,23.27
2017-11-21T20:06:37.489Z,21.75
2017-11-21T20:09:07.528Z,23.23
2017-11-21T20:11:36.805Z,21.70
2017-11-21T20:14:06.804Z,23.25
2017-11-21T20:16:36.076Z,22.85
2017-11-21T20:19:05.337Z,20.95
2017-11-21T20:21:34.582Z,21.17
2017-11-21T20:24:03.817Z,22.33
2017-11-21T20:26:33.087Z,22.02
2017-11-21T20:29:02.325Z,22.02
2017-11-21T20:31:32.348Z,20.77
2017-11-21T20:34:02.353Z,20.08
2017-11-21T20:36:32.376Z,22.65
2017-11-21T20:39:01.636Z,22.60
2017-11-21T20:41:30.873Z,23.40
2017-11-21T20:44:00.898Z,23.05
2017-11-21T20:46:30.124Z,24.05
2017-11-21T20:48:59.396Z,24.10
2017-11-21T20:51:29.403Z,27.33
2017-11-21T20:53:58.647Z,24.20
2017-11-21T20:56:27.888Z,26.58
2017-11-21T20:58:57.153Z,25.85
2017-11-21T21:01:26.409Z,25.67
2017-11-21T21:03:55.632Z,27.40
2017-11-21T21:06:24.902Z,27.42
2017-11-21T21:08:54.907Z,24.48
2017-11-21T21:11:24.212Z,24.60
2017-11-21T21:13:53.443Z,25.52
2017-11-21T21:16:22.707Z,21.12
2017-11-21T21:18:51.943Z,27.65
2017-11-21T21:21:21.177Z,23.75
2017-11-21T21:23:50.417Z,22.73
2017-11-21T21:26:19.677Z,22.83
2017-11-21T21:28:48.913Z,24.90
2017-11-21T21:31:18.928Z,24.20
2017-11-21T21:33:48.212Z,26.37
2017-11-21T21:36:17.455Z,26.27
2017-11-21T21:38:46.722Z,24.40
2017-11-21T21:41:15.959Z,25.65
2017-11-21T21:43:45.209Z,22.90
2017-11-21T21:46:14.469Z,27.60
2017-11-21T21:48:43.725Z,25.95
2017-11-21T21:51:12.988Z,23.23
2017-11-21T21:53:42.254Z,22.40
2017-11-21T21:56:12.260Z,24.02
2017-11-21T21:58:42.268Z,25.25
2017-11-21T22:01:12.328Z,20.90
2017-11-21T22:03:41.597Z,25.80
2017-11-21T22:06:11.626Z,20.12
2017-11-21T22:08:40.882Z,22.23
2017-11-21T22:11:10.144Z,20.98
2017-11-21T22:13:39.392Z,23.58
2017-11-21T22:16:08.645Z,20.02
2017-11-21T22:18:37.906Z,24.75
2017-11-21T22:21:07.907Z,22.98
2017-11-21T22:23:37.192Z,24.33
2017-11-21T22:26:06.419Z,23.35
2017-11-21T22:28:36.447Z,19.62
2017-11-21T22:31:06.458Z,20.40
2017-11-21T22:33:35.705Z,20.50
2017-11-21T22:36:04.936Z,18.45
2017-11-21T22:38:34.193Z,22.67
2017-11-21T22:41:03.443Z,22.50
2017-11-21T22:43:32.696Z,20.23
2017-11-21T22:46:01.943Z,20.12
2017-11-21T22:48:31.214Z,21.40
2017-11-21T22:51:00.448Z,20.92
2017-11-21T22:53:30.475Z,24.00
2017-11-21T22:56:00.497Z,21.67
2017-11-21T22:58:30.517Z,18.73
2017-11-21T23:01:00.516Z,21.25
2017-11-21T23:03:29.773Z,20.20
2017-11-21T23:05:59.044Z,20.95
2017-11-21T23:08:29.048Z,19.85
2017-11-21T23:10:59.089Z,21.02
2017-11-21T23:13:28.323Z,18.52
2017-11-21T23:15:57.577Z,19.85
2017-11-21T23:18:26.828Z,18.60
2017-11-21T23:20:56.117Z,19.42
2017-11-21T23:23:25.344Z,19.87
2017-11-21T23:25:54.581Z,19.92
2017-11-21T23:28:23.855Z,19.27
2017-11-21T23:30:53.104Z,18.00
2017-11-21T23:33:22.372Z,20.75
2017-11-21T23:35:52.369Z,17.73
2017-11-21T23:38:21.631Z,18.50
2017-11-21T23:40:50.915Z,18.35
2017-11-21T23:43:20.149Z,16.55
2017-11-21T23:45:49.394Z,17.73
2017-11-21T23:48:18.645Z,18.48
2017-11-21T23:50:47.885Z,18.45
2017-11-21T23:53:17.903Z,17.17
2017-11-21T23:55:47.908Z,17.67
2017-11-21T23:58:17.932Z,18.02
